Syracuse, IN

10:21 PM EST on February 12, 2016 (GMT -0500)
APRSWXNET | | Change Station
CLOSE
Current Station
Personal Weather Station
Location: North Webster, IN
Elevation: 951 ft
Nearby Weather Stations

Elev 951 ft 41.36 °N, 85.70 °W | Updated 26 minutes ago

Mostly Cloudy
Mostly Cloudy
13 °F
Feels Like 13 °F
N
3
Wind Variable Wind from WNW
Gusts 14.0 mph

Today
High -- | Low -- °F
--% Chance of Precip.
Yesterday
High -- | Low -- °F
Precip. -- in
Pressure 30.26 in
Visibility 5.0 miles
Clouds Mostly Cloudy 1500 ft
Mostly Cloudy 2300 ft
Overcast 3700 ft
Windchill 13 °F
Dew Point 10 °F
Humidity 86%
Rainfall in
Snow Depth Not available.
7:42 AM 6:12 PM
Waxing Crescent, 26% visible
METAR KASW 130315Z AUTO 31010KT 5SM -SN BKN015 BKN023 OVC037 M10/M12 A3026 RMK AO2
Pressure 30.26 in
Visibility 5.0 miles
Clouds Mostly Cloudy 1500 ft
Mostly Cloudy 2300 ft
Overcast 3700 ft
Windchill 13 °F
Dew Point 10 °F
Humidity 86%
Rainfall in
Snow Depth Not available.
7:42 AM 6:12 PM
Waxing Crescent, 26% visible
METAR KASW 130315Z AUTO 31010KT 5SM -SN BKN015 BKN023 OVC037 M10/M12 A3026 RMK AO2

10-Day Weather Forecast

Almanac

Astronomy

Feb. 12, 2016 Rise Set
Actual Time
Civil Twilight
Nautical Twilight
Astronomical Twilight
Moon
Length of Visible Light
Length of Day
Tomorrow will be .
, % of the Moon is Illuminated

Today's Extremes

State Highs State Lows

Community

WunderPhotos

Upload Photos

1,892,491 photos uploaded!

WunderBlog® & News

Nearby

Air Quality

  Air Quality AQ Index Pollutant
Not available.

Snow Depth

Station Depth Elevation

Earthquake Activity

City Distance Mag. Time & Date
Minimum magnitude displayed is 2.5.

Coastal Water Temperatures

Place Temperature

Stations

Nearby Weather Stations

Station Location Temp. Windchill Dew Point Humidity Wind Precip. Elev Updated Type
                   

Watches & Warnings

There are currently no watches in effect.